Time;durP1;ratioP1;P1;durP2;ratioP2;P2;SDS_P1;SDS_P2;PMS_P1;PMS_P2;Temp;Humidity;BMP_temperature;BMP_pressure;BME280_temperature;BME280_humidity;BME280_pressure;Samples;Min_cycle;Max_cycle;Signal;HPM_P1;HPM_P2
2022/06/01 00:01:08;;;;;;;2.80;1.70;;;11.50;99.90;;;;;;5002772;28;20027;-76
2022/06/01 00:03:40;;;;;;;1.83;1.48;;;11.50;99.90;;;;;;5004587;28;20022;-78
2022/06/01 00:06:07;;;;;;;4.88;1.98;;;11.50;99.90;;;;;;5004425;28;20030;-75
2022/06/01 00:08:33;;;;;;;3.92;2.05;;;11.50;99.90;;;;;;5004381;28;20061;-75
2022/06/01 00:10:59;;;;;;;2.60;1.80;;;11.50;99.90;;;;;;5004372;28;20030;-75
2022/06/01 00:13:26;;;;;;;3.25;1.90;;;11.50;99.90;;;;;;5002496;28;20057;-76
2022/06/01 00:15:55;;;;;;;3.83;1.95;;;11.50;99.90;;;;;;5004415;28;20097;-76
2022/06/01 00:18:22;;;;;;;5.65;2.25;;;11.40;99.90;;;;;;5003184;28;20037;-77
2022/06/01 00:20:50;;;;;;;3.72;1.92;;;11.40;99.90;;;;;;5004475;28;20054;-78
2022/06/01 00:23:18;;;;;;;3.20;1.95;;;11.40;99.90;;;;;;5004296;28;20035;-77
2022/06/01 00:25:44;;;;;;;4.28;2.55;;;11.40;99.90;;;;;;5004121;28;20069;-77
2022/06/01 00:28:10;;;;;;;4.00;1.65;;;11.30;99.90;;;;;;5003102;28;20030;-78
2022/06/01 00:30:36;;;;;;;3.33;1.95;;;11.30;99.90;;;;;;5004348;28;20023;-77
2022/06/01 00:33:02;;;;;;;2.72;2.15;;;11.30;99.90;;;;;;5002644;28;20061;-78
2022/06/01 00:35:29;;;;;;;3.90;1.77;;;11.40;99.90;;;;;;5003743;28;20031;-78
2022/06/01 00:37:55;;;;;;;2.17;1.75;;;11.40;99.90;;;;;;5003402;28;20039;-77
2022/06/01 00:40:24;;;;;;;6.15;2.25;;;11.40;99.90;;;;;;5003506;28;20058;-78
2022/06/01 00:42:54;;;;;;;6.05;2.30;;;11.40;99.90;;;;;;5002688;28;20050;-77
2022/06/01 00:45:22;;;;;;;6.00;2.25;;;11.40;99.90;;;;;;5001993;28;20334;-78
2022/06/01 00:47:49;;;;;;;3.38;2.03;;;11.40;99.90;;;;;;5003556;28;20033;-76
2022/06/01 00:50:26;;;;;;;9.13;1.55;;;11.40;99.90;;;;;;5003409;28;20027;-77
2022/06/01 00:53:01;;;;;;;4.20;2.33;;;11.40;99.90;;;;;;5003693;28;20026;-76
2022/06/01 00:55:32;;;;;;;4.00;1.95;;;11.40;99.90;;;;;;5001735;28;20038;-77
2022/06/01 00:58:07;;;;;;;3.88;2.30;;;11.40;99.90;;;;;;5003454;28;20054;-76
2022/06/01 01:00:34;;;;;;;5.57;2.28;;;11.40;99.90;;;;;;5010142;28;20050;-76
2022/06/01 01:03:03;;;;;;;6.25;2.55;;;11.40;99.90;;;;;;5003060;28;20053;-78
2022/06/01 01:05:30;;;;;;;4.95;1.73;;;11.30;99.90;;;;;;5001953;28;20485;-77
2022/06/01 01:07:57;;;;;;;3.17;1.98;;;11.40;99.90;;;;;;5002735;28;20045;-77
2022/06/01 01:10:23;;;;;;;3.25;1.95;;;11.30;99.90;;;;;;5001878;28;20030;-76
2022/06/01 01:12:56;;;;;;;6.05;2.40;;;11.30;99.90;;;;;;5003374;28;20019;-76
2022/06/01 01:15:24;;;;;;;4.00;2.05;;;11.30;99.90;;;;;;5004992;28;20025;-76
2022/06/01 01:17:52;;;;;;;3.67;2.10;;;11.30;99.90;;;;;;5004483;28;20037;-77
2022/06/01 01:20:19;;;;;;;4.47;2.25;;;11.30;99.90;;;;;;5022618;28;20072;-75
2022/06/01 01:22:56;;;;;;;4.13;2.50;;;11.30;99.90;;;;;;5022003;28;20061;-76
2022/06/01 01:25:26;;;;;;;7.93;2.47;;;11.30;99.90;;;;;;5021906;28;20030;-75
2022/06/01 01:27:54;;;;;;;2.47;1.65;;;11.30;99.90;;;;;;5021600;28;20029;-75
2022/06/01 01:30:52;;;;;;;4.15;1.90;;;11.30;99.90;;;;;;5021474;28;20026;-76
2022/06/01 01:33:22;;;;;;;3.50;1.83;;;11.30;99.90;;;;;;5022121;28;20040;-75
2022/06/01 01:35:54;;;;;;;5.20;2.15;;;11.30;99.90;;;;;;5004555;28;20029;-77
2022/06/01 01:38:50;;;;;;;3.45;2.38;;;11.30;99.90;;;;;;5022220;28;20034;-76
2022/06/01 01:41:37;;;;;;;3.72;2.00;;;11.30;99.90;;;;;;5004533;28;20530;-76
2022/06/01 01:44:20;;;;;;;4.88;2.38;;;11.30;99.90;;;;;;5022200;28;20033;-78
2022/06/01 01:46:48;;;;;;;4.40;2.03;;;11.30;99.90;;;;;;5022326;28;20029;-76
2022/06/01 01:49:21;;;;;;;2.67;1.70;;;11.40;99.90;;;;;;5022132;28;20014;-76
2022/06/01 01:51:49;;;;;;;5.00;2.40;;;11.40;99.90;;;;;;5022064;28;20046;-77
2022/06/01 01:54:29;;;;;;;7.15;2.72;;;11.40;99.90;;;;;;5004677;28;20030;-75
2022/06/01 01:57:04;;;;;;;12.07;2.72;;;11.40;99.90;;;;;;5020453;28;20030;-77
2022/06/01 02:00:07;;;;;;;5.57;2.88;;;11.40;99.90;;;;;;5003880;28;20030;-76
2022/06/01 02:03:00;;;;;;;24.88;2.50;;;11.40;99.90;;;;;;5004167;28;20108;-75
2022/06/01 02:08:47;;;;;;;9.63;2.58;;;11.40;99.90;;;;;;5022215;28;20036;-74
2022/06/01 02:14:16;;;;;;;5.93;3.38;;;11.40;99.90;;;;;;5021745;28;20110;-73
2022/06/01 02:16:51;;;;;;;7.63;3.47;;;11.40;99.90;;;;;;5004378;28;20022;-74
2022/06/01 02:19:28;;;;;;;5.07;3.05;;;11.30;99.90;;;;;;5022099;28;20036;-74
2022/06/01 02:21:57;;;;;;;8.65;3.63;;;11.30;99.90;;;;;;5021785;28;20026;-73
2022/06/01 02:24:23;;;;;;;10.85;3.25;;;11.40;99.90;;;;;;5021413;28;20022;-74
2022/06/01 02:26:52;;;;;;;5.18;2.70;;;11.30;99.90;;;;;;5022118;28;20044;-75
2022/06/01 02:29:24;;;;;;;6.43;3.40;;;11.30;99.90;;;;;;5003642;28;20394;-78
2022/06/01 02:31:50;;;;;;;9.02;2.97;;;11.30;99.90;;;;;;5021904;28;20018;-77
2022/06/01 02:34:19;;;;;;;6.07;3.63;;;11.30;99.90;;;;;;5004406;28;20364;-78
2022/06/01 02:36:45;;;;;;;5.93;4.00;;;11.30;99.90;;;;;;5004095;28;20033;-80
2022/06/01 02:39:14;;;;;;;4.78;2.83;;;11.20;99.90;;;;;;5022118;28;20479;-78
2022/06/01 02:44:24;;;;;;;6.55;3.45;;;11.20;99.90;;;;;;5025223;28;20105;-76
2022/06/01 02:46:50;;;;;;;3.78;2.88;;;11.20;99.90;;;;;;5025686;28;20038;-77
2022/06/01 02:49:19;;;;;;;5.30;3.53;;;11.10;99.90;;;;;;5025626;28;20068;-78
2022/06/01 02:51:45;;;;;;;6.07;3.85;;;11.10;99.90;;;;;;5025618;28;20026;-75
2022/06/01 02:54:11;;;;;;;7.85;3.65;;;11.10;99.90;;;;;;5025142;28;20030;-75
2022/06/01 02:56:36;;;;;;;6.32;3.83;;;11.10;99.90;;;;;;5025401;28;20083;-73
2022/06/01 02:59:02;;;;;;;6.97;3.47;;;11.10;99.90;;;;;;5007492;28;20053;-76
2022/06/01 03:01:29;;;;;;;7.20;3.78;;;11.10;99.90;;;;;;5025156;28;20492;-74
2022/06/01 03:03:54;;;;;;;7.88;3.97;;;11.10;99.90;;;;;;5007491;28;20026;-77
2022/06/01 03:06:20;;;;;;;5.55;3.40;;;11.10;99.90;;;;;;5025329;28;20110;-76
2022/06/01 03:08:46;;;;;;;7.38;4.00;;;11.10;99.90;;;;;;5025129;28;20030;-78
2022/06/01 03:11:13;;;;;;;5.25;3.38;;;11.10;99.90;;;;;;5025112;28;20033;-77
2022/06/01 03:13:39;;;;;;;5.13;3.30;;;11.00;99.90;;;;;;5002727;28;20061;-80
2022/06/01 03:16:05;;;;;;;5.43;3.17;;;11.00;99.90;;;;;;5003951;28;20042;-81
2022/06/01 03:18:31;;;;;;;11.10;4.28;;;11.00;99.90;;;;;;5003430;28;20042;-80
2022/06/01 03:21:00;;;;;;;4.65;3.22;;;11.00;99.90;;;;;;5004088;28;20026;-77
2022/06/01 03:23:26;;;;;;;6.00;3.70;;;11.00;99.90;;;;;;5004956;28;20030;-78
2022/06/01 03:25:52;;;;;;;8.75;4.93;;;11.00;99.90;;;;;;5003950;28;20053;-76
2022/06/01 03:28:19;;;;;;;5.82;3.42;;;10.90;99.90;;;;;;5004537;28;20030;-77
2022/06/01 03:30:45;;;;;;;9.30;5.03;;;10.90;99.90;;;;;;5003830;28;20133;-76
2022/06/01 03:33:13;;;;;;;16.98;5.38;;;10.90;99.90;;;;;;5004458;28;20026;-76
2022/06/01 03:35:40;;;;;;;9.23;5.47;;;10.90;99.90;;;;;;5004716;28;20026;-74
2022/06/01 03:38:06;;;;;;;14.02;5.43;;;10.90;99.90;;;;;;5004903;28;20065;-76
2022/06/01 03:40:42;;;;;;;8.05;5.07;;;10.80;99.90;;;;;;5004257;28;20030;-78
2022/06/01 03:43:12;;;;;;;12.48;5.53;;;10.80;99.90;;;;;;5004328;28;20023;-76
2022/06/01 03:45:59;;;;;;;10.00;5.55;;;10.80;99.90;;;;;;5003218;28;20022;-75
2022/06/01 03:48:31;;;;;;;10.32;5.00;;;10.80;99.90;;;;;;5004610;28;20053;-75
2022/06/01 03:50:57;;;;;;;10.82;5.40;;;10.80;99.90;;;;;;5004534;28;20030;-75
2022/06/01 03:53:24;;;;;;;9.27;5.28;;;10.80;99.90;;;;;;5004627;28;20033;-75
2022/06/01 03:55:51;;;;;;;8.52;5.47;;;10.70;99.90;;;;;;5004752;28;20615;-76
2022/06/01 03:58:20;;;;;;;6.35;4.40;;;10.70;99.90;;;;;;5011289;28;20034;-74
2022/06/01 04:00:46;;;;;;;11.18;5.53;;;10.70;99.90;;;;;;5004468;28;20034;-76
2022/06/01 04:03:12;;;;;;;11.75;4.45;;;10.70;99.90;;;;;;5004183;28;20053;-73
2022/06/01 04:05:38;;;;;;;13.60;4.40;;;10.70;99.90;;;;;;5004624;28;20493;-73
2022/06/01 04:08:05;;;;;;;12.57;5.65;;;10.70;99.90;;;;;;5004590;28;20014;-74
2022/06/01 04:10:31;;;;;;;8.45;4.40;;;10.70;99.90;;;;;;5004455;28;20034;-73
2022/06/01 04:12:57;;;;;;;6.05;3.78;;;10.70;99.90;;;;;;5002393;28;20023;-73
2022/06/01 04:15:23;;;;;;;6.72;3.42;;;10.60;99.90;;;;;;5002853;28;20136;-75
2022/06/01 04:17:49;;;;;;;5.63;3.53;;;10.60;99.90;;;;;;5002699;28;20090;-73
2022/06/01 04:20:15;;;;;;;5.65;3.63;;;10.50;99.90;;;;;;5004577;28;20058;-73
2022/06/01 04:22:42;;;;;;;9.13;4.03;;;10.60;99.90;;;;;;5003578;28;20022;-76
2022/06/01 04:25:14;;;;;;;7.68;4.43;;;10.60;99.90;;;;;;5004004;28;20026;-75
2022/06/01 04:27:40;;;;;;;10.23;3.95;;;10.60;99.90;;;;;;5002439;28;20041;-75
2022/06/01 04:30:12;;;;;;;8.55;4.22;;;10.60;99.90;;;;;;5003845;28;20608;-77
2022/06/01 04:32:38;;;;;;;6.15;3.83;;;10.60;99.90;;;;;;5003810;28;20026;-78
2022/06/01 04:35:06;;;;;;;12.32;4.82;;;10.60;99.90;;;;;;5003941;28;20121;-78
2022/06/01 04:37:32;;;;;;;7.90;4.20;;;10.70;99.90;;;;;;5003764;28;20049;-76
2022/06/01 04:39:58;;;;;;;6.80;4.10;;;10.70;99.90;;;;;;5003295;28;20023;-74
2022/06/01 04:42:24;;;;;;;8.13;4.38;;;10.70;99.90;;;;;;5002681;28;20037;-74
2022/06/01 04:44:50;;;;;;;10.15;5.07;;;10.70;99.90;;;;;;5003729;28;20033;-77
2022/06/01 04:47:18;;;;;;;9.13;4.15;;;10.70;99.90;;;;;;5003860;28;20082;-75
2022/06/01 04:49:44;;;;;;;6.28;3.45;;;10.80;99.90;;;;;;5002209;28;21061;-74
2022/06/01 04:52:10;;;;;;;6.60;3.95;;;10.80;99.90;;;;;;5002039;28;20049;-74
2022/06/01 04:54:36;;;;;;;9.07;3.90;;;10.80;99.90;;;;;;5001702;28;20026;-76
2022/06/01 04:57:03;;;;;;;5.57;3.92;;;10.80;99.90;;;;;;5000842;28;20043;-78
2022/06/01 04:59:28;;;;;;;6.78;4.18;;;10.80;99.90;;;;;;5002005;28;20030;-77
2022/06/01 05:01:54;;;;;;;8.80;4.47;;;10.80;99.90;;;;;;5003270;28;20046;-79
2022/06/01 05:04:20;;;;;;;8.80;3.95;;;10.90;99.90;;;;;;5002829;28;20091;-78
2022/06/01 05:06:46;;;;;;;6.85;4.13;;;10.90;99.90;;;;;;5003484;28;20077;-76
2022/06/01 05:09:11;;;;;;;8.43;4.75;;;10.90;99.90;;;;;;5003496;28;20022;-78
2022/06/01 05:11:37;;;;;;;10.20;4.72;;;10.90;99.90;;;;;;5002943;28;20042;-76
2022/06/01 05:14:03;;;;;;;6.68;4.43;;;10.90;99.90;;;;;;5008709;28;20046;-78
2022/06/01 05:16:28;;;;;;;9.88;5.05;;;11.00;99.90;;;;;;5022880;28;20029;-80
2022/06/01 05:18:54;;;;;;;7.30;4.28;;;11.00;99.90;;;;;;5022481;28;20034;-79
2022/06/01 05:21:20;;;;;;;7.45;4.45;;;11.00;99.90;;;;;;5022645;28;20025;-77
2022/06/01 05:23:46;;;;;;;11.13;5.22;;;11.00;99.90;;;;;;5005009;28;20030;-79
2022/06/01 05:26:11;;;;;;;6.95;4.40;;;11.00;99.90;;;;;;5022764;28;20061;-77
2022/06/01 05:28:37;;;;;;;10.43;4.70;;;11.10;99.90;;;;;;5004954;28;20092;-77
2022/06/01 05:31:06;;;;;;;8.52;4.43;;;11.00;99.90;;;;;;5000835;28;20030;-76
2022/06/01 05:33:32;;;;;;;7.05;4.68;;;11.00;99.90;;;;;;5019138;28;20116;-76
2022/06/01 05:35:58;;;;;;;11.50;4.18;;;11.00;99.90;;;;;;5021768;28;20117;-76
2022/06/01 05:38:23;;;;;;;4.80;3.20;;;10.90;99.90;;;;;;5022691;28;20713;-73
2022/06/01 05:40:50;;;;;;;5.90;3.95;;;10.90;99.90;;;;;;5022836;28;20036;-76
2022/06/01 05:43:18;;;;;;;8.90;4.90;;;10.80;99.90;;;;;;5022399;28;20026;-76
2022/06/01 05:45:44;;;;;;;10.40;5.40;;;10.80;99.90;;;;;;5022325;28;20036;-75
2022/06/01 05:48:11;;;;;;;8.70;4.47;;;10.80;99.90;;;;;;5004959;28;20049;-75
2022/06/01 05:50:37;;;;;;;11.13;4.88;;;10.80;99.90;;;;;;5022613;28;20014;-77
2022/06/01 05:53:03;;;;;;;9.68;4.82;;;10.80;99.90;;;;;;5019992;28;20030;-75
2022/06/01 05:55:29;;;;;;;8.23;4.55;;;10.80;99.90;;;;;;5002319;28;20033;-77
2022/06/01 05:57:54;;;;;;;8.65;4.88;;;10.80;99.90;;;;;;5021434;28;20057;-78
2022/06/01 06:00:21;;;;;;;14.07;5.50;;;10.80;99.90;;;;;;5003629;28;20061;-75
2022/06/01 06:02:48;;;;;;;8.68;4.70;;;10.70;99.90;;;;;;5004727;28;20076;-75
2022/06/01 06:07:59;;;;;;;11.80;6.90;;;10.80;99.90;;;;;;5021285;28;20121;-77
2022/06/01 06:10:26;;;;;;;9.52;5.82;;;10.90;99.90;;;;;;5022132;28;20058;-74
2022/06/01 06:12:57;;;;;;;12.20;5.50;;;10.90;99.90;;;;;;5021728;28;20041;-75
2022/06/01 06:15:23;;;;;;;9.88;5.88;;;10.90;99.90;;;;;;5020845;28;20046;-75
2022/06/01 06:17:48;;;;;;;8.27;4.57;;;11.00;99.90;;;;;;5022409;28;20033;-76
2022/06/01 06:20:17;;;;;;;14.02;5.57;;;11.10;99.90;;;;;;5004957;28;20026;-74
2022/06/01 06:22:42;;;;;;;7.55;5.00;;;11.10;99.90;;;;;;5021716;28;20085;-74
2022/06/01 06:25:08;;;;;;;10.88;5.78;;;11.00;99.90;;;;;;5020315;28;20034;-75
2022/06/01 06:27:35;;;;;;;8.02;4.90;;;11.00;99.90;;;;;;5021802;28;20026;-75
2022/06/01 06:30:00;;;;;;;8.25;4.72;;;11.00;99.90;;;;;;5004275;28;20030;-75
2022/06/01 06:32:28;;;;;;;9.30;5.03;;;11.20;99.90;;;;;;5021433;28;20129;-72
2022/06/01 06:34:54;;;;;;;14.20;5.68;;;11.00;99.90;;;;;;5020885;28;20490;-75
2022/06/01 06:37:21;;;;;;;8.48;5.25;;;11.00;99.90;;;;;;5021844;28;20397;-77
2022/06/01 06:39:47;;;;;;;10.55;6.35;;;11.00;99.90;;;;;;5021255;28;20049;-75
2022/06/01 06:42:12;;;;;;;13.73;5.55;;;11.00;99.90;;;;;;5022499;28;20029;-75
2022/06/01 06:44:38;;;;;;;11.20;5.88;;;11.10;99.90;;;;;;5021815;28;20074;-77
2022/06/01 06:47:04;;;;;;;9.77;5.97;;;11.10;99.90;;;;;;5022380;28;20030;-76
2022/06/01 06:49:30;;;;;;;12.27;6.90;;;11.10;99.90;;;;;;5020239;28;20022;-77
2022/06/01 06:51:56;;;;;;;12.57;6.18;;;11.10;99.90;;;;;;5021540;28;20018;-76
2022/06/01 06:54:22;;;;;;;11.70;6.13;;;11.10;99.90;;;;;;5004828;28;20471;-78
2022/06/01 06:56:49;;;;;;;14.38;6.80;;;11.20;99.90;;;;;;5021528;28;20030;-76
2022/06/01 06:59:18;;;;;;;10.50;5.60;;;11.20;99.90;;;;;;5019774;28;20034;-75
2022/06/01 07:01:43;;;;;;;11.90;6.63;;;11.30;99.90;;;;;;5020387;28;20029;-76
2022/06/01 07:04:09;;;;;;;18.48;8.32;;;11.20;99.90;;;;;;5019074;28;20073;-76
2022/06/01 07:06:41;;;;;;;9.82;5.85;;;11.20;99.90;;;;;;5021118;28;20026;-75
2022/06/01 07:09:07;;;;;;;10.50;5.78;;;11.30;99.90;;;;;;5020216;28;20095;-75
2022/06/01 07:11:32;;;;;;;9.43;6.05;;;11.30;99.90;;;;;;5018899;28;20030;-77
2022/06/01 07:13:59;;;;;;;11.52;6.55;;;11.30;99.90;;;;;;5003698;28;20402;-75
2022/06/01 07:16:27;;;;;;;11.10;6.47;;;11.20;99.90;;;;;;5002831;28;20034;-74
2022/06/01 07:18:55;;;;;;;13.27;7.68;;;11.30;99.90;;;;;;5020773;28;20093;-75
2022/06/01 07:21:22;;;;;;;11.05;6.05;;;11.30;99.90;;;;;;5021513;28;20502;-75
2022/06/01 07:23:49;;;;;;;11.18;6.60;;;11.30;99.90;;;;;;5020817;28;20061;-74
2022/06/01 07:26:19;;;;;;;11.75;6.60;;;11.30;99.90;;;;;;5002254;28;20516;-74
2022/06/01 07:28:45;;;;;;;12.05;6.57;;;11.40;99.90;;;;;;5020964;28;20113;-73
2022/06/01 07:31:13;;;;;;;11.65;6.57;;;11.50;99.90;;;;;;5022068;28;20022;-75
2022/06/01 07:33:39;;;;;;;12.95;6.93;;;11.40;99.90;;;;;;5025010;28;20386;-74
2022/06/01 07:36:07;;;;;;;12.52;7.07;;;11.50;99.90;;;;;;5005805;28;20025;-74
2022/06/01 07:44:32;;;;;;;15.98;8.77;;;11.60;99.90;;;;;;5024483;28;20427;-74
2022/06/01 07:46:58;;;;;;;16.35;8.70;;;11.70;99.90;;;;;;5024135;28;20037;-75
2022/06/01 07:49:25;;;;;;;16.77;8.90;;;11.80;99.90;;;;;;5024861;28;20529;-73
2022/06/01 07:51:53;;;;;;;20.98;11.18;;;12.00;99.90;;;;;;5007650;28;20037;-76
2022/06/01 07:54:20;;;;;;;22.05;11.23;;;12.10;99.90;;;;;;5023648;28;20026;-75
2022/06/01 07:56:46;;;;;;;20.23;11.80;;;12.10;99.90;;;;;;5023671;28;20029;-75
2022/06/01 07:59:11;;;;;;;23.02;12.63;;;12.30;99.90;;;;;;5024728;28;20036;-75
2022/06/01 08:01:38;;;;;;;23.58;12.00;;;12.30;99.90;;;;;;5024152;28;20026;-71
2022/06/01 08:04:05;;;;;;;20.60;12.30;;;12.40;99.90;;;;;;5023912;28;20490;-71
2022/06/01 08:06:33;;;;;;;23.23;11.73;;;12.40;99.90;;;;;;5024978;28;20022;-75
2022/06/01 08:08:59;;;;;;;28.50;12.15;;;12.40;99.90;;;;;;5024075;28;20034;-74
2022/06/01 08:13:06;;;;;;;22.65;10.57;;;12.40;99.90;;;;;;5024661;28;20041;-75
2022/06/01 08:14:12;;;;;;;29.70;13.57;;;12.50;99.90;;;;;;5023601;28;20106;-73
2022/06/01 08:16:40;;;;;;;23.90;12.25;;;12.40;99.90;;;;;;5023696;28;20049;-72
2022/06/01 08:19:07;;;;;;;27.77;13.45;;;12.50;99.90;;;;;;5022698;28;20030;-75
2022/06/01 08:21:34;;;;;;;28.08;13.43;;;12.40;99.90;;;;;;5005919;28;20018;-73
2022/06/01 08:24:00;;;;;;;26.63;13.43;;;12.40;99.90;;;;;;5022751;28;20026;-74
2022/06/01 08:26:25;;;;;;;20.98;12.25;;;12.40;99.90;;;;;;5023643;28;20033;-77
2022/06/01 08:28:51;;;;;;;23.77;13.02;;;12.40;99.90;;;;;;5023259;28;20060;-76
2022/06/01 08:31:19;;;;;;;25.25;13.00;;;12.40;99.90;;;;;;5004703;28;20026;-77
2022/06/01 08:33:44;;;;;;;24.13;13.07;;;12.50;99.90;;;;;;5022492;28;20034;-76
2022/06/01 08:36:10;;;;;;;27.35;14.25;;;12.40;99.90;;;;;;5021025;28;20038;-73
2022/06/01 08:38:36;;;;;;;26.48;13.90;;;12.50;99.90;;;;;;5021359;28;20053;-75
2022/06/01 08:41:06;;;;;;;27.33;14.68;;;12.60;99.90;;;;;;5022838;28;20028;-76
2022/06/01 08:43:50;;;;;;;25.98;15.23;;;12.60;99.90;;;;;;5022790;28;20558;-75
2022/06/01 08:46:18;;;;;;;;;;;12.60;99.90;;;;;;5005945;28;20034;-76
2022/06/01 08:48:48;;;;;;;28.88;14.75;;;12.70;99.90;;;;;;5019882;28;19960;-76
2022/06/01 08:51:18;;;;;;;30.35;13.57;;;12.70;99.90;;;;;;5022997;28;20029;-76
2022/06/01 08:53:47;;;;;;;31.75;14.60;;;12.70;99.90;;;;;;5022292;28;20117;-77
2022/06/01 08:56:36;;;;;;;24.50;14.50;;;12.80;99.90;;;;;;5022390;28;20030;-73
2022/06/01 08:59:26;;;;;;;25.58;13.77;;;12.80;99.90;;;;;;5021990;28;20073;-74
2022/06/01 09:02:06;;;;;;;26.42;14.02;;;12.90;99.90;;;;;;5021585;28;20372;-76
2022/06/01 09:04:59;;;;;;;25.08;13.13;;;13.00;99.90;;;;;;5021919;28;20482;-75
2022/06/01 09:08:13;;;;;;;27.48;15.02;;;13.10;99.90;;;;;;5021614;28;20025;-75
2022/06/01 09:11:06;;;;;;;27.98;15.23;;;13.30;99.90;;;;;;4915678;29;20039;-75
2022/06/01 09:13:40;;;;;;;28.25;13.77;;;13.50;99.90;;;;;;4981714;28;1100385;-75
2022/06/01 09:16:13;;;;;;;37.58;16.30;;;13.60;99.90;;;;;;5021703;28;20026;-76
2022/06/01 09:18:49;;;;;;;24.58;13.88;;;13.90;99.90;;;;;;5005030;28;20049;-73
2022/06/01 09:24:10;;;;;;;31.08;14.00;;;14.20;99.90;;;;;;5023311;28;20049;-78
2022/06/01 09:26:50;;;;;;;20.35;11.25;;;14.40;99.90;;;;;;4998350;28;20038;-76
2022/06/01 09:29:28;;;;;;;23.92;11.70;;;14.40;99.90;;;;;;5016865;28;20387;-77
2022/06/01 09:32:26;;;;;;;20.02;11.80;;;14.50;99.90;;;;;;5017584;28;20034;-76
2022/06/01 09:34:51;;;;;;;19.60;10.30;;;14.40;99.90;;;;;;5020299;28;20034;-73
2022/06/01 09:37:33;;;;;;;20.27;11.15;;;14.40;99.90;;;;;;5003472;28;20060;-76
2022/06/01 09:40:18;;;;;;;21.60;12.10;;;14.30;99.90;;;;;;5022782;28;20509;-75
2022/06/01 09:42:47;;;;;;;;;;;14.30;99.90;;;;;;5023379;28;20112;-77
2022/06/01 09:45:39;;;;;;;24.52;11.85;;;14.20;99.90;;;;;;5021835;28;19948;-77
2022/06/01 09:48:27;;;;;;;27.38;10.98;;;14.30;99.90;;;;;;4999418;28;20037;-73
2022/06/01 09:51:08;;;;;;;22.27;11.77;;;14.30;99.90;;;;;;5003628;28;20033;-78
2022/06/01 09:53:45;;;;;;;25.45;13.10;;;14.30;99.90;;;;;;5004888;28;20042;-76
2022/06/01 09:56:17;;;;;;;27.98;11.40;;;14.30;99.90;;;;;;5022346;28;20033;-76
2022/06/01 10:07:24;;;;;;;22.38;12.32;;;14.50;99.90;;;;;;5022468;28;20065;-75
2022/06/01 10:10:04;;;;;;;27.02;12.15;;;14.50;99.90;;;;;;5022901;28;20029;-80
2022/06/01 10:12:43;;;;;;;19.33;11.23;;;14.50;99.90;;;;;;5022525;28;20022;-75
2022/06/01 10:15:17;;;;;;;21.25;12.48;;;14.60;99.90;;;;;;5021886;28;20053;-73
2022/06/01 10:17:49;;;;;;;;;;;14.70;99.90;;;;;;5005339;28;20064;-76
2022/06/01 10:20:40;;;;;;;23.08;11.50;;;14.70;99.90;;;;;;5005407;28;19905;-74
2022/06/01 10:23:09;;;;;;;22.45;13.13;;;14.70;99.90;;;;;;5020527;28;20130;-75
2022/06/01 10:25:59;;;;;;;25.42;12.32;;;14.70;99.90;;;;;;5021532;28;20046;-75
2022/06/01 10:28:39;;;;;;;21.13;11.10;;;14.70;99.90;;;;;;5004539;28;20022;-78
2022/06/01 10:31:17;;;;;;;23.38;13.25;;;14.70;99.90;;;;;;5022131;28;20429;-75
2022/06/01 10:34:09;;;;;;;20.83;12.75;;;14.80;99.90;;;;;;5021909;28;20523;-74
2022/06/01 10:37:05;;;;;;;21.65;11.65;;;14.90;99.90;;;;;;5018943;28;20572;-74
2022/06/01 10:39:34;;;;;;;21.60;11.80;;;15.00;99.90;;;;;;5022651;28;20120;-74
2022/06/01 10:42:16;;;;;;;22.48;12.10;;;15.20;99.90;;;;;;5021932;28;20022;-74
2022/06/01 10:44:44;;;;;;;18.77;11.02;;;15.20;99.90;;;;;;5022357;28;20026;-74
2022/06/01 10:47:57;;;;;;;31.38;11.52;;;15.20;99.90;;;;;;5004489;28;21480;-74
2022/06/01 10:50:46;;;;;;;19.45;10.00;;;15.30;99.90;;;;;;5003989;28;20018;-72
2022/06/01 10:53:37;;;;;;;16.20;9.35;;;15.80;99.90;;;;;;4972528;28;20034;-71
2022/06/01 10:56:03;;;;;;;19.13;9.48;;;16.10;99.90;;;;;;5004566;28;20030;-71
2022/06/01 10:58:30;;;;;;;18.17;8.95;;;16.20;99.90;;;;;;5022067;28;20046;-71
2022/06/01 11:01:15;;;;;;;17.98;8.68;;;16.00;99.90;;;;;;5021793;28;20053;-69
2022/06/01 11:04:02;;;;;;;23.60;10.35;;;15.90;99.90;;;;;;5005714;28;20033;-71
2022/06/01 11:06:57;;;;;;;18.88;9.68;;;15.70;99.90;;;;;;5008295;28;20109;-70
2022/06/01 11:09:56;;;;;;;24.63;10.63;;;15.60;99.90;;;;;;5025689;28;20474;-70
2022/06/01 11:12:41;;;;;;;17.45;10.00;;;15.80;99.90;;;;;;5025549;28;20089;-72
2022/06/01 11:15:10;;;;;;;13.68;8.40;;;16.10;99.90;;;;;;5025300;28;20056;-72
2022/06/01 11:17:39;;;;;;;15.13;8.50;;;16.10;99.90;;;;;;5025457;28;20061;-71
2022/06/01 11:20:40;;;;;;;14.73;8.55;;;16.00;99.90;;;;;;5024300;28;20030;-71
2022/06/01 11:23:31;;;;;;;14.90;8.57;;;15.90;99.90;;;;;;5025390;28;20025;-71
2022/06/01 11:26:03;;;;;;;15.35;8.73;;;15.60;99.90;;;;;;5024099;28;20120;-70
2022/06/01 11:28:51;;;;;;;17.48;8.40;;;15.40;99.90;;;;;;5019021;28;20033;-73
2022/06/01 11:31:23;;;;;;;19.85;7.85;;;15.20;99.90;;;;;;5020418;28;20116;-72
2022/06/01 11:34:12;;;;;;;17.08;9.13;;;15.00;99.90;;;;;;5008072;28;20026;-74
2022/06/01 11:37:03;;;;;;;14.30;7.70;;;14.70;99.90;;;;;;5024654;28;20124;-70
2022/06/01 11:39:37;;;;;;;11.05;6.60;;;14.70;99.90;;;;;;5024446;28;20038;-71
2022/06/01 11:42:18;;;;;;;7.93;5.25;;;14.70;99.90;;;;;;5025246;28;20088;-71
2022/06/01 11:44:53;;;;;;;8.10;5.18;;;14.70;99.90;;;;;;5025154;28;20040;-73
2022/06/01 11:47:21;;;;;;;6.88;4.32;;;14.90;99.90;;;;;;5025205;28;20022;-70
2022/06/01 11:50:16;;;;;;;11.20;5.28;;;15.20;99.90;;;;;;5024997;28;20022;-72
2022/06/01 11:52:52;;;;;;;10.48;6.50;;;15.60;99.90;;;;;;5024999;28;20021;-72
2022/06/01 11:55:31;;;;;;;15.18;7.15;;;15.90;99.90;;;;;;5024996;28;20096;-70
2022/06/01 11:58:10;;;;;;;13.93;7.45;;;16.10;99.90;;;;;;5023727;28;20042;-73
2022/06/01 12:00:51;;;;;;;18.13;6.72;;;16.00;99.90;;;;;;5024790;28;20034;-72
2022/06/01 12:03:17;;;;;;;11.07;6.22;;;15.90;99.90;;;;;;5024733;28;20033;-70
2022/06/01 12:06:02;;;;;;;9.43;5.43;;;15.70;99.90;;;;;;5024603;28;20140;-71
2022/06/01 12:09:00;;;;;;;11.90;5.72;;;15.50;99.90;;;;;;5024413;28;20474;-74
2022/06/01 12:11:40;;;;;;;13.93;5.88;;;15.60;99.90;;;;;;5023974;28;20098;-74
2022/06/01 12:14:30;;;;;;;10.02;5.43;;;15.90;99.90;;;;;;5023882;28;20038;-73
2022/06/01 12:17:18;;;;;;;8.30;4.03;;;16.40;99.90;;;;;;5023055;28;20022;-70
2022/06/01 12:19:47;;;;;;;7.65;3.85;;;16.50;99.90;;;;;;5022836;28;20022;-70
2022/06/01 12:28:45;;;;;;;4.68;3.50;;;15.70;99.90;;;;;;5023862;28;20073;-73
2022/06/01 12:31:33;;;;;;;6.38;4.03;;;15.50;99.90;;;;;;5022870;28;20034;-72
2022/06/01 12:34:05;;;;;;;6.53;3.75;;;15.30;99.90;;;;;;5023551;28;20121;-71
2022/06/01 12:36:36;;;;;;;8.23;4.03;;;15.20;99.90;;;;;;5023675;28;20372;-70
2022/06/01 12:39:07;;;;;;;9.13;4.10;;;15.20;99.90;;;;;;5023619;28;20113;-71
2022/06/01 12:41:36;;;;;;;10.98;3.92;;;15.60;99.90;;;;;;5024272;28;20026;-70
2022/06/01 12:44:07;;;;;;;9.50;3.80;;;16.10;99.90;;;;;;5022495;28;20030;-72
2022/06/01 12:46:40;;;;;;;6.25;3.47;;;16.50;99.90;;;;;;5023764;28;20509;-73
2022/06/01 12:49:35;;;;;;;8.32;4.90;;;16.90;99.90;;;;;;5023603;28;20082;-73
2022/06/01 12:52:07;;;;;;;8.35;4.22;;;17.30;99.90;;;;;;5023239;28;20398;-73
2022/06/01 12:54:41;;;;;;;6.38;4.13;;;17.70;99.90;;;;;;5023962;28;20022;-72
2022/06/01 12:57:21;;;;;;;9.55;5.65;;;18.30;99.90;;;;;;5023228;28;20060;-76
2022/06/01 12:59:56;;;;;;;10.85;6.00;;;18.70;99.90;;;;;;5023740;28;20084;-73
2022/06/01 13:02:22;;;;;;;8.35;5.05;;;18.80;99.90;;;;;;5023820;28;20026;-72
2022/06/01 13:04:54;;;;;;;10.95;5.97;;;18.70;99.90;;;;;;5023874;28;20080;-72
2022/06/01 13:07:28;;;;;;;9.00;5.10;;;18.50;99.90;;;;;;5006098;28;20030;-74
2022/06/01 13:10:19;;;;;;;10.73;4.53;;;18.00;99.90;;;;;;5023563;28;20022;-71
2022/06/01 13:12:44;;;;;;;13.13;6.70;;;17.50;99.90;;;;;;5020532;28;20058;-72
2022/06/01 13:15:22;;;;;;;12.02;6.00;;;16.90;99.90;;;;;;5023139;28;20041;-74
2022/06/01 13:17:57;;;;;;;11.48;5.93;;;16.40;99.90;;;;;;5022233;28;20036;-75
2022/06/01 13:20:26;;;;;;;9.57;5.38;;;15.90;99.90;;;;;;5022498;28;20109;-73
2022/06/01 13:22:53;;;;;;;14.95;5.43;;;15.40;99.90;;;;;;5004599;28;20109;-76
2022/06/01 13:25:25;;;;;;;11.23;5.75;;;15.00;99.90;;;;;;5022603;28;20505;-75
2022/06/01 13:27:53;;;;;;;14.45;6.05;;;14.70;99.90;;;;;;5023559;28;20021;-76
2022/06/01 13:30:21;;;;;;;11.93;6.68;;;14.50;99.90;;;;;;5022967;28;20414;-75
2022/06/01 13:32:51;;;;;;;11.35;6.22;;;14.50;99.90;;;;;;5022301;28;20029;-76
2022/06/01 13:35:38;;;;;;;13.10;5.72;;;14.50;99.90;;;;;;5005439;28;20032;-73
2022/06/01 13:38:14;;;;;;;9.10;4.85;;;14.60;99.90;;;;;;5020383;28;20042;-72
2022/06/01 13:40:51;;;;;;;7.65;4.78;;;15.10;99.90;;;;;;5005055;28;20094;-75